sensor_id;sensor_type;location;lat;lon;timestamp;temperature;humidity
1413;DHT22;701;52.526;13.408;2023-02-08T00:00:20;-0.20;25.40
1413;DHT22;701;52.526;13.408;2023-02-08T00:02:47;-0.20;25.50
1413;DHT22;701;52.526;13.408;2023-02-08T00:05:12;-0.20;25.40
1413;DHT22;701;52.526;13.408;2023-02-08T00:07:38;-0.20;25.40
1413;DHT22;701;52.526;13.408;2023-02-08T00:10:05;-0.30;25.40
1413;DHT22;701;52.526;13.408;2023-02-08T00:12:35;-0.30;25.40
1413;DHT22;701;52.526;13.408;2023-02-08T00:15:01;-0.30;25.40
1413;DHT22;701;52.526;13.408;2023-02-08T00:17:27;-0.30;25.40
1413;DHT22;701;52.526;13.408;2023-02-08T00:19:52;-0.30;25.40
1413;DHT22;701;52.526;13.408;2023-02-08T00:22:18;-0.40;25.30
1413;DHT22;701;52.526;13.408;2023-02-08T00:24:44;-0.40;25.50
1413;DHT22;701;52.526;13.408;2023-02-08T00:27:09;-0.40;25.60
1413;DHT22;701;52.526;13.408;2023-02-08T00:29:35;-0.40;25.70
1413;DHT22;701;52.526;13.408;2023-02-08T00:32:01;-0.50;25.90
1413;DHT22;701;52.526;13.408;2023-02-08T00:34:27;-0.50;26.20
1413;DHT22;701;52.526;13.408;2023-02-08T00:36:53;-0.50;26.50
1413;DHT22;701;52.526;13.408;2023-02-08T00:39:18;-0.50;26.80
1413;DHT22;701;52.526;13.408;2023-02-08T00:41:46;-0.60;27.10
1413;DHT22;701;52.526;13.408;2023-02-08T00:44:12;-0.60;27.30
1413;DHT22;701;52.526;13.408;2023-02-08T00:46:38;-0.60;27.20
1413;DHT22;701;52.526;13.408;2023-02-08T00:49:03;-0.60;27.30
1413;DHT22;701;52.526;13.408;2023-02-08T00:51:29;-0.60;27.40
1413;DHT22;701;52.526;13.408;2023-02-08T00:53:55;-0.60;27.50
1413;DHT22;701;52.526;13.408;2023-02-08T00:56:22;-0.60;27.60
1413;DHT22;701;52.526;13.408;2023-02-08T00:58:47;-0.60;27.80
1413;DHT22;701;52.526;13.408;2023-02-08T01:01:13;-0.60;28.10
1413;DHT22;701;52.526;13.408;2023-02-08T01:03:41;-0.60;27.90
1413;DHT22;701;52.526;13.408;2023-02-08T01:06:09;-0.60;27.80
1413;DHT22;701;52.526;13.408;2023-02-08T01:08:36;-0.60;27.90
1413;DHT22;701;52.526;13.408;2023-02-08T01:11:07;-0.70;27.80
1413;DHT22;701;52.526;13.408;2023-02-08T01:13:34;-0.70;27.90
1413;DHT22;701;52.526;13.408;2023-02-08T01:16:27;-0.70;28.00
1413;DHT22;701;52.526;13.408;2023-02-08T01:18:56;-0.70;28.20
1413;DHT22;701;52.526;13.408;2023-02-08T01:21:24;-0.70;28.20
1413;DHT22;701;52.526;13.408;2023-02-08T01:23:51;-0.70;28.30
1413;DHT22;701;52.526;13.408;2023-02-08T01:26:18;-0.70;28.30
1413;DHT22;701;52.526;13.408;2023-02-08T01:28:44;-0.70;28.10
1413;DHT22;701;52.526;13.408;2023-02-08T01:31:14;-0.70;28.30
1413;DHT22;701;52.526;13.408;2023-02-08T01:33:40;-0.70;28.20
1413;DHT22;701;52.526;13.408;2023-02-08T01:36:07;-0.80;28.50
1413;DHT22;701;52.526;13.408;2023-02-08T01:38:34;-0.80;28.50
1413;DHT22;701;52.526;13.408;2023-02-08T01:41:01;-0.80;28.50
1413;DHT22;701;52.526;13.408;2023-02-08T01:46:20;-0.80;28.50
1413;DHT22;701;52.526;13.408;2023-02-08T01:48:46;-0.80;28.50
1413;DHT22;701;52.526;13.408;2023-02-08T01:51:19;-0.80;28.50
1413;DHT22;701;52.526;13.408;2023-02-08T01:53:47;-0.90;28.50
1413;DHT22;701;52.526;13.408;2023-02-08T01:56:20;-0.90;28.60
1413;DHT22;701;52.526;13.408;2023-02-08T01:58:51;-0.90;28.70
1413;DHT22;701;52.526;13.408;2023-02-08T02:01:19;-0.90;28.70
1413;DHT22;701;52.526;13.408;2023-02-08T02:03:45;-0.90;28.70
1413;DHT22;701;52.526;13.408;2023-02-08T02:06:20;-0.90;28.70
1413;DHT22;701;52.526;13.408;2023-02-08T02:08:55;-0.90;28.90
1413;DHT22;701;52.526;13.408;2023-02-08T02:11:22;-0.90;28.80
1413;DHT22;701;52.526;13.408;2023-02-08T02:13:50;-1.00;28.70
1413;DHT22;701;52.526;13.408;2023-02-08T02:16:17;-1.00;28.90
1413;DHT22;701;52.526;13.408;2023-02-08T02:18:42;-1.00;28.80
1413;DHT22;701;52.526;13.408;2023-02-08T02:23:58;-1.00;29.00
1413;DHT22;701;52.526;13.408;2023-02-08T02:35:15;-1.10;28.90
1413;DHT22;701;52.526;13.408;2023-02-08T02:38:10;-1.10;28.90
1413;DHT22;701;52.526;13.408;2023-02-08T02:43:46;-1.20;29.20
1413;DHT22;701;52.526;13.408;2023-02-08T02:46:38;-1.20;29.10
1413;DHT22;701;52.526;13.408;2023-02-08T02:51:57;-1.20;29.20
1413;DHT22;701;52.526;13.408;2023-02-08T02:54:49;-1.30;29.40
1413;DHT22;701;52.526;13.408;2023-02-08T02:57:21;-1.30;29.30
1413;DHT22;701;52.526;13.408;2023-02-08T02:59:49;-1.30;29.40
1413;DHT22;701;52.526;13.408;2023-02-08T03:02:15;-1.30;29.30
1413;DHT22;701;52.526;13.408;2023-02-08T03:13:25;-1.30;29.20
1413;DHT22;701;52.526;13.408;2023-02-08T03:16:15;-1.40;29.10
1413;DHT22;701;52.526;13.408;2023-02-08T03:19:03;-1.40;29.00
1413;DHT22;701;52.526;13.408;2023-02-08T03:26:54;-1.50;29.00
1413;DHT22;701;52.526;13.408;2023-02-08T03:31:55;-1.50;29.00
1413;DHT22;701;52.526;13.408;2023-02-08T03:37:36;-1.60;28.90
1413;DHT22;701;52.526;13.408;2023-02-08T03:40:27;-1.60;29.00
1413;DHT22;701;52.526;13.408;2023-02-08T03:42:57;-1.60;29.00
1413;DHT22;701;52.526;13.408;2023-02-08T03:45:28;-1.70;28.90
1413;DHT22;701;52.526;13.408;2023-02-08T03:47:56;-1.70;29.00
1413;DHT22;701;52.526;13.408;2023-02-08T03:50:26;-1.70;28.90
1413;DHT22;701;52.526;13.408;2023-02-08T03:52:54;-1.70;28.90
1413;DHT22;701;52.526;13.408;2023-02-08T03:55:24;-1.70;28.90
1413;DHT22;701;52.526;13.408;2023-02-08T04:00:30;-1.70;28.90
1413;DHT22;701;52.526;13.408;2023-02-08T04:03:25;-1.70;28.90
1413;DHT22;701;52.526;13.408;2023-02-08T04:05:51;-1.70;28.80
1413;DHT22;701;52.526;13.408;2023-02-08T04:08:17;-1.70;28.80
1413;DHT22;701;52.526;13.408;2023-02-08T04:10:44;-1.70;28.80
1413;DHT22;701;52.526;13.408;2023-02-08T04:13:10;-1.70;29.10
1413;DHT22;701;52.526;13.408;2023-02-08T04:15:36;-1.70;28.90
1413;DHT22;701;52.526;13.408;2023-02-08T04:18:01;-1.80;29.00
1413;DHT22;701;52.526;13.408;2023-02-08T04:20:27;-1.70;29.00
1413;DHT22;701;52.526;13.408;2023-02-08T04:22:53;-1.70;29.00
1413;DHT22;701;52.526;13.408;2023-02-08T04:25:18;-1.70;28.90
1413;DHT22;701;52.526;13.408;2023-02-08T04:27:44;-1.80;28.90
1413;DHT22;701;52.526;13.408;2023-02-08T04:30:11;-1.80;28.90
1413;DHT22;701;52.526;13.408;2023-02-08T04:32:36;-1.80;29.00
1413;DHT22;701;52.526;13.408;2023-02-08T04:35:03;-1.70;29.10
1413;DHT22;701;52.526;13.408;2023-02-08T04:37:28;-1.80;29.00
1413;DHT22;701;52.526;13.408;2023-02-08T04:39:54;-1.80;28.90
1413;DHT22;701;52.526;13.408;2023-02-08T04:42:20;-1.80;29.00
1413;DHT22;701;52.526;13.408;2023-02-08T04:44:46;-1.80;29.00
1413;DHT22;701;52.526;13.408;2023-02-08T04:47:11;-1.80;29.00
1413;DHT22;701;52.526;13.408;2023-02-08T04:49:37;-1.80;29.10
1413;DHT22;701;52.526;13.408;2023-02-08T04:52:03;-1.80;29.10
1413;DHT22;701;52.526;13.408;2023-02-08T04:54:29;-1.80;29.00
1413;DHT22;701;52.526;13.408;2023-02-08T04:56:55;-1.80;29.00
1413;DHT22;701;52.526;13.408;2023-02-08T04:59:21;-1.80;29.00
1413;DHT22;701;52.526;13.408;2023-02-08T05:01:47;-1.80;29.00
1413;DHT22;701;52.526;13.408;2023-02-08T05:04:13;-1.80;29.00
1413;DHT22;701;52.526;13.408;2023-02-08T05:06:38;-1.80;29.00
1413;DHT22;701;52.526;13.408;2023-02-08T05:09:07;-1.80;29.10
1413;DHT22;701;52.526;13.408;2023-02-08T05:11:33;-1.80;29.00
1413;DHT22;701;52.526;13.408;2023-02-08T05:13:59;-1.80;29.00
1413;DHT22;701;52.526;13.408;2023-02-08T05:16:25;-1.80;29.10
1413;DHT22;701;52.526;13.408;2023-02-08T05:18:50;-1.80;29.10
1413;DHT22;701;52.526;13.408;2023-02-08T05:21:16;-1.90;29.10
1413;DHT22;701;52.526;13.408;2023-02-08T05:23:42;-1.90;29.10
1413;DHT22;701;52.526;13.408;2023-02-08T05:26:09;-1.90;29.10
1413;DHT22;701;52.526;13.408;2023-02-08T05:28:36;-1.90;29.20
1413;DHT22;701;52.526;13.408;2023-02-08T05:31:11;-1.90;29.30
1413;DHT22;701;52.526;13.408;2023-02-08T05:33:37;-1.90;29.20
1413;DHT22;701;52.526;13.408;2023-02-08T05:36:03;-1.90;29.20
1413;DHT22;701;52.526;13.408;2023-02-08T05:38:29;-1.90;29.30
1413;DHT22;701;52.526;13.408;2023-02-08T05:40:54;-1.90;29.30
1413;DHT22;701;52.526;13.408;2023-02-08T05:43:20;-1.90;29.40
1413;DHT22;701;52.526;13.408;2023-02-08T05:45:46;-1.90;29.40
1413;DHT22;701;52.526;13.408;2023-02-08T05:48:11;-2.00;29.30
1413;DHT22;701;52.526;13.408;2023-02-08T05:50:37;-1.90;29.40
1413;DHT22;701;52.526;13.408;2023-02-08T05:53:03;-1.90;29.40
1413;DHT22;701;52.526;13.408;2023-02-08T05:55:29;-1.90;29.40
1413;DHT22;701;52.526;13.408;2023-02-08T05:57:54;-1.90;29.30
1413;DHT22;701;52.526;13.408;2023-02-08T06:00:20;-1.90;29.20
1413;DHT22;701;52.526;13.408;2023-02-08T06:02:46;-2.00;29.10
1413;DHT22;701;52.526;13.408;2023-02-08T06:05:12;-2.00;29.20
1413;DHT22;701;52.526;13.408;2023-02-08T06:07:37;-2.00;29.10
1413;DHT22;701;52.526;13.408;2023-02-08T06:10:03;-2.00;29.10
1413;DHT22;701;52.526;13.408;2023-02-08T06:12:29;-2.00;29.10
1413;DHT22;701;52.526;13.408;2023-02-08T06:14:55;-2.00;29.10
1413;DHT22;701;52.526;13.408;2023-02-08T06:17:20;-2.10;29.10
1413;DHT22;701;52.526;13.408;2023-02-08T06:19:46;-2.10;29.10
1413;DHT22;701;52.526;13.408;2023-02-08T06:22:12;-2.10;29.20
1413;DHT22;701;52.526;13.408;2023-02-08T06:24:37;-2.10;29.20
1413;DHT22;701;52.526;13.408;2023-02-08T06:27:03;-2.10;29.20
1413;DHT22;701;52.526;13.408;2023-02-08T06:29:29;-2.10;29.20
1413;DHT22;701;52.526;13.408;2023-02-08T06:31:54;-2.10;29.20
1413;DHT22;701;52.526;13.408;2023-02-08T06:34:20;-2.10;29.00
1413;DHT22;701;52.526;13.408;2023-02-08T06:36:46;-2.10;29.10
1413;DHT22;701;52.526;13.408;2023-02-08T06:39:12;-2.10;29.10
1413;DHT22;701;52.526;13.408;2023-02-08T06:41:38;-2.10;29.00
1413;DHT22;701;52.526;13.408;2023-02-08T06:44:03;-2.10;29.10
1413;DHT22;701;52.526;13.408;2023-02-08T06:46:29;-2.10;29.00
1413;DHT22;701;52.526;13.408;2023-02-08T06:48:55;-2.10;29.00
1413;DHT22;701;52.526;13.408;2023-02-08T06:51:22;-2.10;29.00
1413;DHT22;701;52.526;13.408;2023-02-08T06:53:48;-2.10;29.00
1413;DHT22;701;52.526;13.408;2023-02-08T06:56:14;-2.10;29.00
1413;DHT22;701;52.526;13.408;2023-02-08T06:58:39;-2.10;28.90
1413;DHT22;701;52.526;13.408;2023-02-08T07:01:05;-2.10;29.00
1413;DHT22;701;52.526;13.408;2023-02-08T07:03:31;-2.00;28.90
1413;DHT22;701;52.526;13.408;2023-02-08T07:05:57;-2.00;28.90
1413;DHT22;701;52.526;13.408;2023-02-08T07:08:22;-2.00;28.80
1413;DHT22;701;52.526;13.408;2023-02-08T07:10:48;-1.90;28.90
1413;DHT22;701;52.526;13.408;2023-02-08T07:13:14;-1.90;28.70
1413;DHT22;701;52.526;13.408;2023-02-08T07:15:39;-1.80;28.60
1413;DHT22;701;52.526;13.408;2023-02-08T07:18:05;-1.80;28.50
1413;DHT22;701;52.526;13.408;2023-02-08T07:20:31;-1.80;28.40
1413;DHT22;701;52.526;13.408;2023-02-08T07:22:57;-1.80;28.30
1413;DHT22;701;52.526;13.408;2023-02-08T07:25:23;-1.80;28.20
1413;DHT22;701;52.526;13.408;2023-02-08T07:27:49;-1.80;28.20
1413;DHT22;701;52.526;13.408;2023-02-08T07:30:15;-1.70;28.10
1413;DHT22;701;52.526;13.408;2023-02-08T07:32:41;-1.70;28.20
1413;DHT22;701;52.526;13.408;2023-02-08T07:35:07;-1.70;28.00
1413;DHT22;701;52.526;13.408;2023-02-08T07:37:32;-1.60;28.10
1413;DHT22;701;52.526;13.408;2023-02-08T07:39:58;-1.60;28.00
1413;DHT22;701;52.526;13.408;2023-02-08T07:42:24;-1.50;28.00
1413;DHT22;701;52.526;13.408;2023-02-08T07:45:01;-1.50;28.00
1413;DHT22;701;52.526;13.408;2023-02-08T07:47:28;-1.50;28.00
1413;DHT22;701;52.526;13.408;2023-02-08T07:49:54;-1.50;27.70
1413;DHT22;701;52.526;13.408;2023-02-08T07:52:20;-1.40;27.80
1413;DHT22;701;52.526;13.408;2023-02-08T07:54:45;-1.40;27.60
1413;DHT22;701;52.526;13.408;2023-02-08T07:57:11;-1.30;27.60
1413;DHT22;701;52.526;13.408;2023-02-08T07:59:37;-1.30;27.40
1413;DHT22;701;52.526;13.408;2023-02-08T08:02:03;-1.20;27.30
1413;DHT22;701;52.526;13.408;2023-02-08T08:04:28;-1.20;27.10
1413;DHT22;701;52.526;13.408;2023-02-08T08:06:54;-1.20;27.00
1413;DHT22;701;52.526;13.408;2023-02-08T08:09:20;-1.10;26.90
1413;DHT22;701;52.526;13.408;2023-02-08T08:11:46;-1.10;26.60
1413;DHT22;701;52.526;13.408;2023-02-08T08:14:11;-1.10;26.30
1413;DHT22;701;52.526;13.408;2023-02-08T08:16:37;-1.10;26.30
1413;DHT22;701;52.526;13.408;2023-02-08T08:19:03;-1.00;26.10
1413;DHT22;701;52.526;13.408;2023-02-08T08:21:28;-1.00;26.10
1413;DHT22;701;52.526;13.408;2023-02-08T08:23:54;-1.00;26.10
1413;DHT22;701;52.526;13.408;2023-02-08T08:26:20;-0.90;26.10
1413;DHT22;701;52.526;13.408;2023-02-08T08:28:46;-0.90;26.10
1413;DHT22;701;52.526;13.408;2023-02-08T08:31:16;-0.80;25.90
1413;DHT22;701;52.526;13.408;2023-02-08T08:33:42;-0.80;25.70
1413;DHT22;701;52.526;13.408;2023-02-08T08:36:08;-0.70;25.60
1413;DHT22;701;52.526;13.408;2023-02-08T08:38:34;-0.70;25.10
1413;DHT22;701;52.526;13.408;2023-02-08T08:41:00;-0.60;25.30
1413;DHT22;701;52.526;13.408;2023-02-08T08:43:25;-0.60;25.20
1413;DHT22;701;52.526;13.408;2023-02-08T08:45:51;-0.50;25.20
1413;DHT22;701;52.526;13.408;2023-02-08T08:48:17;-0.50;25.20
1413;DHT22;701;52.526;13.408;2023-02-08T08:50:42;-0.50;24.70
1413;DHT22;701;52.526;13.408;2023-02-08T08:53:08;-0.50;25.20
1413;DHT22;701;52.526;13.408;2023-02-08T08:55:34;-0.40;25.20
1413;DHT22;701;52.526;13.408;2023-02-08T08:58:00;-0.30;24.70
1413;DHT22;701;52.526;13.408;2023-02-08T09:00:26;-0.30;24.80
1413;DHT22;701;52.526;13.408;2023-02-08T09:02:51;-0.20;24.70
1413;DHT22;701;52.526;13.408;2023-02-08T09:05:18;-0.10;24.50
1413;DHT22;701;52.526;13.408;2023-02-08T09:07:43;-0.10;24.50
1413;DHT22;701;52.526;13.408;2023-02-08T09:10:09;0.00;24.30
1413;DHT22;701;52.526;13.408;2023-02-08T09:12:35;0.00;24.30
1413;DHT22;701;52.526;13.408;2023-02-08T09:15:01;0.10;23.70
1413;DHT22;701;52.526;13.408;2023-02-08T09:17:26;0.10;23.60
1413;DHT22;701;52.526;13.408;2023-02-08T09:19:52;0.10;23.50
1413;DHT22;701;52.526;13.408;2023-02-08T09:22:18;0.20;23.20
1413;DHT22;701;52.526;13.408;2023-02-08T09:24:44;0.20;23.30
1413;DHT22;701;52.526;13.408;2023-02-08T09:27:10;0.30;23.00
1413;DHT22;701;52.526;13.408;2023-02-08T09:29:36;0.30;23.20
1413;DHT22;701;52.526;13.408;2023-02-08T09:32:02;0.40;22.80
1413;DHT22;701;52.526;13.408;2023-02-08T09:34:28;0.40;23.00
1413;DHT22;701;52.526;13.408;2023-02-08T09:36:53;0.50;22.50
1413;DHT22;701;52.526;13.408;2023-02-08T09:39:22;0.50;22.40
1413;DHT22;701;52.526;13.408;2023-02-08T09:45:01;0.60;22.50
1413;DHT22;701;52.526;13.408;2023-02-08T09:47:34;0.70;22.00
1413;DHT22;701;52.526;13.408;2023-02-08T09:55:55;0.90;21.10
1413;DHT22;701;52.526;13.408;2023-02-08T09:58:41;1.00;21.10
1413;DHT22;701;52.526;13.408;2023-02-08T10:01:23;1.00;20.90
1413;DHT22;701;52.526;13.408;2023-02-08T10:03:52;1.10;21.20
1413;DHT22;701;52.526;13.408;2023-02-08T10:06:20;1.20;21.20
1413;DHT22;701;52.526;13.408;2023-02-08T10:08:49;1.20;20.90
1413;DHT22;701;52.526;13.408;2023-02-08T10:22:42;1.60;19.50
1413;DHT22;701;52.526;13.408;2023-02-08T10:25:22;1.80;19.70
1413;DHT22;701;52.526;13.408;2023-02-08T10:33:36;2.40;17.20
1413;DHT22;701;52.526;13.408;2023-02-08T10:36:23;2.80;16.50
1413;DHT22;701;52.526;13.408;2023-02-08T10:38:51;3.10;15.60
1413;DHT22;701;52.526;13.408;2023-02-08T10:41:23;3.20;15.00
1413;DHT22;701;52.526;13.408;2023-02-08T10:46:35;3.20;14.30
1413;DHT22;701;52.526;13.408;2023-02-08T10:51:34;2.90;14.50
1413;DHT22;701;52.526;13.408;2023-02-08T10:54:00;2.90;15.00
1413;DHT22;701;52.526;13.408;2023-02-08T10:58:56;3.10;15.00
1413;DHT22;701;52.526;13.408;2023-02-08T11:01:23;3.20;14.50
1413;DHT22;701;52.526;13.408;2023-02-08T11:04:04;3.40;13.50
1413;DHT22;701;52.526;13.408;2023-02-08T11:06:30;3.60;13.60
1413;DHT22;701;52.526;13.408;2023-02-08T11:08:56;3.80;13.70
1413;DHT22;701;52.526;13.408;2023-02-08T11:11:25;4.00;13.00
1413;DHT22;701;52.526;13.408;2023-02-08T11:13:52;4.10;13.10
1413;DHT22;701;52.526;13.408;2023-02-08T11:16:26;4.30;12.50
1413;DHT22;701;52.526;13.408;2023-02-08T11:18:55;4.50;12.90
1413;DHT22;701;52.526;13.408;2023-02-08T11:21:26;4.70;12.30
1413;DHT22;701;52.526;13.408;2023-02-08T11:23:55;4.80;11.00
1413;DHT22;701;52.526;13.408;2023-02-08T11:26:32;5.00;12.00
1413;DHT22;701;52.526;13.408;2023-02-08T11:31:36;5.30;10.90
1413;DHT22;701;52.526;13.408;2023-02-08T11:34:10;5.40;11.00
1413;DHT22;701;52.526;13.408;2023-02-08T11:36:43;5.60;10.60
1413;DHT22;701;52.526;13.408;2023-02-08T11:39:33;5.70;10.80
1413;DHT22;701;52.526;13.408;2023-02-08T11:42:03;5.80;8.70
1413;DHT22;701;52.526;13.408;2023-02-08T11:44:40;5.90;9.20
1413;DHT22;701;52.526;13.408;2023-02-08T11:47:07;5.90;8.90
1413;DHT22;701;52.526;13.408;2023-02-08T11:49:42;6.00;8.40
1413;DHT22;701;52.526;13.408;2023-02-08T11:52:21;6.00;8.10
1413;DHT22;701;52.526;13.408;2023-02-08T11:54:47;6.00;8.70
1413;DHT22;701;52.526;13.408;2023-02-08T11:59:41;6.00;8.80
1413;DHT22;701;52.526;13.408;2023-02-08T12:04:55;6.10;8.40
1413;DHT22;701;52.526;13.408;2023-02-08T12:10:20;5.80;7.60
1413;DHT22;701;52.526;13.408;2023-02-08T12:18:52;5.50;8.80
1413;DHT22;701;52.526;13.408;2023-02-08T12:29:26;5.00;9.50
1413;DHT22;701;52.526;13.408;2023-02-08T12:38:01;4.60;10.10
1413;DHT22;701;52.526;13.408;2023-02-08T12:45:55;4.40;10.50
1413;DHT22;701;52.526;13.408;2023-02-08T12:51:23;4.30;10.80
1413;DHT22;701;52.526;13.408;2023-02-08T12:53:58;4.20;11.10
1413;DHT22;701;52.526;13.408;2023-02-08T12:56:31;4.20;11.10
1413;DHT22;701;52.526;13.408;2023-02-08T12:59:00;4.10;11.20
1413;DHT22;701;52.526;13.408;2023-02-08T13:01:39;4.10;11.10
1413;DHT22;701;52.526;13.408;2023-02-08T13:04:15;4.10;11.20
1413;DHT22;701;52.526;13.408;2023-02-08T13:07:01;4.10;11.30
1413;DHT22;701;52.526;13.408;2023-02-08T13:09:58;4.10;11.10
1413;DHT22;701;52.526;13.408;2023-02-08T13:12:33;4.10;11.20
1413;DHT22;701;52.526;13.408;2023-02-08T13:15:09;4.10;11.50
1413;DHT22;701;52.526;13.408;2023-02-08T13:17:46;4.10;11.30
1413;DHT22;701;52.526;13.408;2023-02-08T13:20:29;4.10;11.10
1413;DHT22;701;52.526;13.408;2023-02-08T13:23:00;4.20;11.20
1413;DHT22;701;52.526;13.408;2023-02-08T13:25:34;4.20;11.20
1413;DHT22;701;52.526;13.408;2023-02-08T13:28:03;4.20;10.90
1413;DHT22;701;52.526;13.408;2023-02-08T13:30:31;4.30;11.20
1413;DHT22;701;52.526;13.408;2023-02-08T13:33:27;4.30;11.00
1413;DHT22;701;52.526;13.408;2023-02-08T13:35:54;4.30;11.10
1413;DHT22;701;52.526;13.408;2023-02-08T13:38:30;4.40;11.30
1413;DHT22;701;52.526;13.408;2023-02-08T13:41:17;4.40;11.20
1413;DHT22;701;52.526;13.408;2023-02-08T13:46:33;4.50;11.00
1413;DHT22;701;52.526;13.408;2023-02-08T13:48:59;4.50;10.50
1413;DHT22;701;52.526;13.408;2023-02-08T13:56:52;4.50;10.50
1413;DHT22;701;52.526;13.408;2023-02-08T14:04:45;4.50;10.30
1413;DHT22;701;52.526;13.408;2023-02-08T14:07:36;4.40;10.40
1413;DHT22;701;52.526;13.408;2023-02-08T14:13:04;4.40;10.50
1413;DHT22;701;52.526;13.408;2023-02-08T14:15:39;4.30;10.30
1413;DHT22;701;52.526;13.408;2023-02-08T14:18:21;4.20;10.90
1413;DHT22;701;52.526;13.408;2023-02-08T14:21:03;4.10;10.80
1413;DHT22;701;52.526;13.408;2023-02-08T14:23:32;4.10;11.10
1413;DHT22;701;52.526;13.408;2023-02-08T14:26:05;4.00;11.30
1413;DHT22;701;52.526;13.408;2023-02-08T14:28:43;4.00;11.30
1413;DHT22;701;52.526;13.408;2023-02-08T14:31:10;3.90;11.20
1413;DHT22;701;52.526;13.408;2023-02-08T14:33:42;3.90;11.20
1413;DHT22;701;52.526;13.408;2023-02-08T14:36:37;3.80;11.10
1413;DHT22;701;52.526;13.408;2023-02-08T14:39:19;3.70;11.10
1413;DHT22;701;52.526;13.408;2023-02-08T14:41:52;3.70;11.40
1413;DHT22;701;52.526;13.408;2023-02-08T14:47:12;3.60;11.60
1413;DHT22;701;52.526;13.408;2023-02-08T14:49:41;3.60;11.60
1413;DHT22;701;52.526;13.408;2023-02-08T14:52:14;3.50;11.70
1413;DHT22;701;52.526;13.408;2023-02-08T14:54:58;3.40;12.10
1413;DHT22;701;52.526;13.408;2023-02-08T14:57:33;3.30;12.10
1413;DHT22;701;52.526;13.408;2023-02-08T15:00:02;3.30;12.30
1413;DHT22;701;52.526;13.408;2023-02-08T15:02:29;3.30;12.50
1413;DHT22;701;52.526;13.408;2023-02-08T15:05:00;3.20;12.80
1413;DHT22;701;52.526;13.408;2023-02-08T15:07:34;3.20;12.80
1413;DHT22;701;52.526;13.408;2023-02-08T15:10:04;3.10;13.00
1413;DHT22;701;52.526;13.408;2023-02-08T15:12:36;3.10;13.10
1413;DHT22;701;52.526;13.408;2023-02-08T15:15:03;3.00;13.20
1413;DHT22;701;52.526;13.408;2023-02-08T15:20:03;3.00;13.20
1413;DHT22;701;52.526;13.408;2023-02-08T15:22:33;2.90;13.20
1413;DHT22;701;52.526;13.408;2023-02-08T15:27:53;2.80;13.20
1413;DHT22;701;52.526;13.408;2023-02-08T15:30:24;2.80;13.10
1413;DHT22;701;52.526;13.408;2023-02-08T15:32:50;2.70;13.10
1413;DHT22;701;52.526;13.408;2023-02-08T15:35:17;2.70;13.10
1413;DHT22;701;52.526;13.408;2023-02-08T15:37:48;2.60;13.20
1413;DHT22;701;52.526;13.408;2023-02-08T15:40:29;2.60;13.30
1413;DHT22;701;52.526;13.408;2023-02-08T15:43:11;2.60;13.60
1413;DHT22;701;52.526;13.408;2023-02-08T15:45:38;2.50;13.90
1413;DHT22;701;52.526;13.408;2023-02-08T15:48:05;2.50;14.00
1413;DHT22;701;52.526;13.408;2023-02-08T15:50:31;2.40;14.30
1413;DHT22;701;52.526;13.408;2023-02-08T15:53:00;2.40;14.30
1413;DHT22;701;52.526;13.408;2023-02-08T15:55:32;2.40;14.40
1413;DHT22;701;52.526;13.408;2023-02-08T15:58:37;2.30;14.30
1413;DHT22;701;52.526;13.408;2023-02-08T16:01:02;2.30;14.40
1413;DHT22;701;52.526;13.408;2023-02-08T16:03:30;2.20;14.90
1413;DHT22;701;52.526;13.408;2023-02-08T16:05:58;2.10;14.90
1413;DHT22;701;52.526;13.408;2023-02-08T16:08:30;2.10;15.10
1413;DHT22;701;52.526;13.408;2023-02-08T16:13:31;2.00;15.40
1413;DHT22;701;52.526;13.408;2023-02-08T16:16:18;1.90;15.60
1413;DHT22;701;52.526;13.408;2023-02-08T16:18:56;1.90;15.80
1413;DHT22;701;52.526;13.408;2023-02-08T16:21:36;1.80;16.00
1413;DHT22;701;52.526;13.408;2023-02-08T16:29:30;1.70;16.30
1413;DHT22;701;52.526;13.408;2023-02-08T16:32:18;1.60;16.40
1413;DHT22;701;52.526;13.408;2023-02-08T16:34:46;1.60;16.90
1413;DHT22;701;52.526;13.408;2023-02-08T16:37:22;1.60;16.70
1413;DHT22;701;52.526;13.408;2023-02-08T16:39:51;1.60;16.90
1413;DHT22;701;52.526;13.408;2023-02-08T16:42:32;1.50;16.90
1413;DHT22;701;52.526;13.408;2023-02-08T16:47:53;1.40;17.20
1413;DHT22;701;52.526;13.408;2023-02-08T16:50:22;1.40;17.60
1413;DHT22;701;52.526;13.408;2023-02-08T16:52:58;1.40;17.90
1413;DHT22;701;52.526;13.408;2023-02-08T16:55:26;1.40;17.90
1413;DHT22;701;52.526;13.408;2023-02-08T16:57:55;1.40;17.90
1413;DHT22;701;52.526;13.408;2023-02-08T17:02:51;1.40;17.90
1413;DHT22;701;52.526;13.408;2023-02-08T17:05:19;1.30;18.10
1413;DHT22;701;52.526;13.408;2023-02-08T17:07:46;1.30;18.40
1413;DHT22;701;52.526;13.408;2023-02-08T17:10:17;1.30;18.40
1413;DHT22;701;52.526;13.408;2023-02-08T17:12:43;1.30;18.60
1413;DHT22;701;52.526;13.408;2023-02-08T17:15:09;1.20;18.60
1413;DHT22;701;52.526;13.408;2023-02-08T17:17:34;1.30;18.60
1413;DHT22;701;52.526;13.408;2023-02-08T17:20:00;1.20;18.50
1413;DHT22;701;52.526;13.408;2023-02-08T17:22:26;1.20;18.60
1413;DHT22;701;52.526;13.408;2023-02-08T17:24:51;1.20;19.20
1413;DHT22;701;52.526;13.408;2023-02-08T17:27:17;1.20;18.60
1413;DHT22;701;52.526;13.408;2023-02-08T17:29:43;1.20;19.00
1413;DHT22;701;52.526;13.408;2023-02-08T17:32:09;1.10;19.00
1413;DHT22;701;52.526;13.408;2023-02-08T17:34:35;1.10;19.30
1413;DHT22;701;52.526;13.408;2023-02-08T17:37:01;1.10;19.30
1413;DHT22;701;52.526;13.408;2023-02-08T17:39:27;1.10;19.30
1413;DHT22;701;52.526;13.408;2023-02-08T17:41:52;1.10;19.30
1413;DHT22;701;52.526;13.408;2023-02-08T17:44:18;1.10;19.30
1413;DHT22;701;52.526;13.408;2023-02-08T17:46:45;1.10;19.30
1413;DHT22;701;52.526;13.408;2023-02-08T17:49:11;1.10;19.20
1413;DHT22;701;52.526;13.408;2023-02-08T17:51:36;1.10;19.30
1413;DHT22;701;52.526;13.408;2023-02-08T17:54:03;1.00;19.20
1413;DHT22;701;52.526;13.408;2023-02-08T17:56:29;1.00;19.30
1413;DHT22;701;52.526;13.408;2023-02-08T17:59:00;1.00;19.20
1413;DHT22;701;52.526;13.408;2023-02-08T18:01:28;1.00;19.30
1413;DHT22;701;52.526;13.408;2023-02-08T18:03:54;0.90;19.60
1413;DHT22;701;52.526;13.408;2023-02-08T18:06:20;0.90;19.80
1413;DHT22;701;52.526;13.408;2023-02-08T18:08:47;0.90;19.60
1413;DHT22;701;52.526;13.408;2023-02-08T18:11:17;0.90;19.70
1413;DHT22;701;52.526;13.408;2023-02-08T18:13:45;0.90;19.70
1413;DHT22;701;52.526;13.408;2023-02-08T18:16:14;0.90;19.80
1413;DHT22;701;52.526;13.408;2023-02-08T18:18:40;0.80;19.70
1413;DHT22;701;52.526;13.408;2023-02-08T18:21:24;0.80;20.20
1413;DHT22;701;52.526;13.408;2023-02-08T18:23:50;0.80;20.20
1413;DHT22;701;52.526;13.408;2023-02-08T18:26:21;0.80;20.00
1413;DHT22;701;52.526;13.408;2023-02-08T18:28:48;0.80;20.10
1413;DHT22;701;52.526;13.408;2023-02-08T18:31:16;0.80;20.10
1413;DHT22;701;52.526;13.408;2023-02-08T18:33:44;0.80;20.10
1413;DHT22;701;52.526;13.408;2023-02-08T18:36:11;0.80;20.10
1413;DHT22;701;52.526;13.408;2023-02-08T18:38:42;0.80;20.00
1413;DHT22;701;52.526;13.408;2023-02-08T18:41:13;0.70;20.20
1413;DHT22;701;52.526;13.408;2023-02-08T18:43:40;0.70;20.20
1413;DHT22;701;52.526;13.408;2023-02-08T18:46:08;0.70;20.50
1413;DHT22;701;52.526;13.408;2023-02-08T18:48:35;0.60;20.30
1413;DHT22;701;52.526;13.408;2023-02-08T18:51:02;0.60;20.60
1413;DHT22;701;52.526;13.408;2023-02-08T18:53:31;0.60;20.70
1413;DHT22;701;52.526;13.408;2023-02-08T18:55:58;0.60;20.60